Tikaboo Peak, Nevada Weather observations

Data are for 10 minute period ending at time listed.
 Day   Time   Solar   Ave.   Ave.  Ave.  Vector  Max.   Baro.   Total    
  of    of     Rad.   Air    Rel.  Wind   Wind   Wind  Press.  Precip.   
Year   Day            Temp.  Hum.  Speed  Dir.   Gust                    
2016   (PST)  Kw/m2    F      %     mph   deg.    mph    mb.     in.     
-------------------------------------------------------------------------
 119    4:20   0.00   29.7   100   25.0    76    35.5   747.9    0.00 
 119    4:30   0.00   29.7   100   21.5    74    31.2   747.9    0.00 
 119    4:40   0.00   29.6   100   18.0    73    28.9   748.1    0.00 
 119    4:50   0.00   29.6   100   14.9    78    27.8   748.4    0.00 
 119    5:00   0.01   29.6   100   13.3    79    24.1   748.7    0.00 
 119    5:10   0.01   29.5   100   14.9    75    28.9   748.7    0.00 
 119    5:20   0.03   29.5   100   14.3    81    23.2   748.8    0.00 
 119    5:30   0.04   29.6   100   17.8    87    28.2   749.0    0.00 
 119    5:40   0.06   29.6   100   15.9    79    26.2   749.0    0.00 
 119    5:50   0.06   29.7   100   13.7    78    23.3   749.2    0.00 
 119    6:00   0.06   29.8   100   14.6    80    26.7   749.3    0.00 
 119    6:10   0.10   30.0   100   13.0    70    20.3   749.4    0.00 
 119    6:20   0.10   30.2   100   12.0    66    20.9   749.4    0.00 
 119    6:30   0.07   30.2   100   11.8    67    20.0   749.5    0.00 
 119    6:40   0.07   30.1   100   11.8    67    20.8   749.6    0.00 
 119    6:50   0.09   30.4   100    8.3    60    15.9   749.6    0.00 
 119    7:00   0.09   30.7   100    9.6    61    17.1   749.7    0.00 
 119    7:10   0.13   30.9   100    8.4    56    14.4   749.7    0.00 
 119    7:20   0.14   31.0   100    6.0    58    12.6   749.8    0.00 
 119    7:30   0.16   30.9   100    6.4    65    12.1   749.8    0.00 
 119    7:40   0.14   31.0   100    7.2    66    13.9   749.9    0.01 
 119    7:50   0.19   31.1   100    7.0    64    13.7   749.9    0.00 
 119    8:00   0.34   31.6   100    9.6    65    15.6   750.1    0.00 
 119    8:10   0.39   32.2   100    5.5    54    12.0   750.0    0.00 
 119    8:20   0.41   32.7   100    6.8    63    13.0   750.1    0.00 
 119    8:30   0.68   33.8   100    6.1    62    12.1   750.1    0.01 
 119    8:40   0.58   34.4    99    6.3    67    11.2   750.3    0.00 
 119    8:50   0.70   35.6    98    6.1    66    14.2   750.3    0.00 
 119    9:00   0.30   36.2    98    1.0    49     6.8   750.5    0.00 
 119    9:10   0.18   36.1    98    1.6    48     6.8   750.5    0.00 
 119    9:20   0.09   35.4    98    2.4    37     7.8   750.5    0.00 
 119    9:30   0.14   34.8    99    3.0    49     6.1   750.5    0.00 
 119    9:40   0.09   34.0    99    1.3    49     4.5   750.6    0.00 
 119    9:50   0.26   33.9    99    1.5    92     4.1   750.7    0.00 
 119   10:00   0.30   34.6    99    5.8    67    10.6   750.9    0.00 
 119   10:10   0.34   36.5    99    3.4    54     9.6   750.9    0.00 
 119   10:20   0.33   37.6    98    5.4    54     8.6   751.0    0.00 
 119   10:30   0.38   36.7    96    6.9    66    14.3   751.1    0.00 
 119   10:40   0.31   34.9    95   10.8    79    19.8   751.1    0.00 
 119   10:50   0.12   32.8    98   19.5    66    26.0   750.9    0.01 
 119   11:00   0.14   32.0    99   20.2    68    25.7   751.1    0.01 
 119   11:10   0.21   32.7    97   18.1    68    22.5   751.0    0.00 
 119   11:20   0.32   34.2    96   15.4    57    21.3   751.1    0.00 
 119   11:30   0.51   36.2    96   14.7    57    20.2   751.1    0.00 
 119   11:40   0.50   38.1    94   11.5    56    17.5   751.2    0.00 
 119   11:50   100.00   39.9    94    8.6    55    14.3   751.3    0.00 
 119   12:00   100.00   41.6    90    6.0    50    11.7   751.5    0.00 
 119   12:10   0.27   40.9    90    3.8    52    10.1   751.4    0.00 
 119   12:20   0.16   38.6    92    5.2    44    12.9   751.5    0.02 
 119   12:30   0.42   37.5    95    8.1    63    14.0   751.4    0.00 
 119   12:40   0.23   38.9    95    6.2    56    12.6   751.4    0.00 
 119   12:50   0.17   38.4    94    6.1    52    11.2   751.5    0.00 
 119   13:00   0.18   38.2    95    6.0    60    12.7   751.6    0.00 
 119   13:10   0.20   36.5    91   10.9    71    15.4   751.7    0.00 
 119   13:20   0.19   36.2    94   10.5    58    16.5   751.5    0.00 
 119   13:30   0.12   36.9    94    3.9    58    13.9   751.7    0.00 
 119   13:40   0.13   36.3    95    5.8    53    16.8   751.8    0.01 
 119   13:50   0.40   37.1    96    9.3    54    17.5   751.9    0.00 
 119   14:00   0.49   39.9    94    6.6    52    14.8   751.9    0.00 
 119   14:10   0.43   40.4    92    4.8    50    12.5   752.0    0.00 
 119   14:20   0.56   41.4    90    4.0    52    15.8   751.9    0.00 
 119   14:30   0.76   43.0    88    3.1    64    13.5   751.9    0.00 
 119   14:40   0.50   43.5    86    4.9    51    15.6   752.0    0.00 
 119   14:50   0.33   41.5    86    1.7    73    13.7   752.0    0.00 
 119   15:00   0.18   38.7    88    5.1    69    19.6   752.1    0.00 
 119   15:10   0.31   35.3    94   13.6    79    22.6   752.2    0.00 
 119   15:20   0.25   35.3    97   14.1    64    23.2   752.0    0.00 
 119   15:30   0.19   35.6    96   15.4    73    28.4   752.1    0.00 
 119   15:40   0.42   34.2    98   20.4    89    31.3   752.2    0.00 
 119   15:50   0.35   34.0    99   22.0    90    33.7   752.1    0.00 
 119   16:00   0.16   33.2   100   25.3    90    34.3   752.1    0.00 
 119   16:10   0.05   32.6   100   24.1    80    35.4   752.2    0.01 
 119   16:20   0.03   32.3   100   28.1    71    33.8   752.1    0.00 
 119   16:30   0.01   31.9   100   26.2    79    34.6   752.3    0.00 
 119   16:40   0.01   31.8   100   28.7    81    35.2   752.3    0.00 
 119   16:50   0.04   31.8   100   28.8    86    34.9   752.2    0.00 
 119   17:00   0.07   31.9   100   29.0    86    36.0   752.3    0.00 
 119   17:10   0.07   32.1   100   26.3    83    34.0   752.4    0.00 
 119   17:20   0.06   32.2   100   23.6    79    32.1   752.6    0.01 
 119   17:30   0.05   32.4   100   25.3    70    34.2   752.7    0.00 
 119   17:40   0.05   32.5   100   22.4    76    33.2   752.9    0.01 
 119   17:50   0.04   32.7   100   24.4    74    37.1   752.9    0.00 
 119   18:00   0.03   32.9    99   21.9    75    33.1   753.3    0.00 
 119   18:10   0.02   33.0    98   23.2    75    34.0   753.2    0.01 
 119   18:20   0.01   33.1    98   24.1    76    35.0   753.3    0.00 
 119   18:30   0.00   33.2    98   22.6    74    33.6   753.4    0.00 
 119   18:40   0.00   33.2    98   19.4    74    28.6   753.6    0.00 
 119   18:50   0.00   33.0    99   19.2    77    28.6   753.6    0.00 
 119   19:00   0.00   33.0    99   22.1    81    30.8   753.8    0.00 
 119   19:10   0.00   32.9    99   23.6    84    29.5   753.8    0.00 
 119   19:20   0.00   33.0    99   21.5    84    28.9   754.0    0.00 
 119   19:30   0.00   33.3    98   20.5    80    29.1   754.1    0.00 
 119   19:40   0.00   33.6    98   17.6    76    27.2   754.3    0.00 
 119   19:50   0.00   33.9    97   18.4    70    26.9   754.4    0.00 
 119   20:00   0.00   34.1    95   19.4    69    27.5   754.7    0.00 
 119   20:10   0.00   34.2    94   16.7    66    25.7   754.8    0.00 
 119   20:20   0.00   34.2    95   15.2    63    21.3   755.0    0.00 
 119   20:30   0.00   34.2    94   16.5    64    23.2   755.1    0.00 
 119   20:40   0.00   34.1    95   12.4    56    18.6   755.3    0.00 
 119   20:50   0.00   34.0    96   13.2    53    19.0   755.4    0.00 
 119   21:00   0.00   34.0    96   13.3    53    20.4   755.6    0.00 
 119   21:10   0.00   34.0    96   10.6    55    17.0   755.6    0.00 
 119   21:20   0.00   34.0    96    9.7    55    17.8   755.6    0.00 
 119   21:30   0.00   33.7    95   13.1    55    20.2   755.6    0.00 
 119   21:40   0.00   34.0    93   14.6    57    22.6   755.6    0.00 
 119   21:50   0.00   34.2    89   18.3    68    27.5   755.7    0.00 
 119   22:00   0.00   34.3    87   20.0    66    28.2   755.7    0.00 
 119   22:10   0.00   34.4    87   18.4    65    26.8   755.7    0.00 
 119   22:20   0.00   34.3    87   16.3    66    23.1   755.8    0.00 
 119   22:30   0.00   34.4    86   15.4    68    22.4   755.9    0.00 
 119   22:40   0.00   34.1    87   13.4    61    22.6   755.9    0.00 
 119   22:50   0.00   33.9    88   11.4    55    20.4   755.9    0.00 
 119   23:00   0.00   34.2    86   14.6    67    23.5   756.1    0.00 
 119   23:10   0.00   34.4    85   17.3    67    23.7   755.9    0.00 
 119   23:20   0.00   34.2    85   17.4    67    27.7   755.9    0.00 
 119   23:30   0.00   34.2    84   18.0    69    24.7   755.9    0.00 
 119   23:40   0.00   34.1    85   17.4    67    27.6   755.9    0.00 
 119   23:50   0.00   34.4    82   22.3    71    28.4   755.8    0.00 
 120    0:00   0.00   34.3    83   17.7    70    23.9   755.9    0.00 
 120    0:10   0.00   34.1    84   16.9    68    22.9   755.9    0.00 
 120    0:20   0.00   34.1    84   13.8    62    21.8   755.9    0.00 
 120    0:30   0.00   33.9    84   11.1    57    18.2   755.9    0.00 
 120    0:40   0.00   34.2    84   14.6    58    21.0   755.9    0.00 
 120    0:50   0.00   34.2    84   11.9    61    21.2   756.0    0.00 
 120    1:00   0.00   34.3    84   14.7    65    21.8   756.0    0.00 
 120    1:10   0.00   34.5    83   13.9    56    19.4   755.9    0.00 
 120    1:20   0.00   34.1    84    4.1    51    14.6   756.1    0.00 
 120    1:30   0.00   33.5    86    5.5    53    13.0   756.1    0.00 
 120    1:40   0.00   33.2    88    9.5    55    18.3   756.0    0.00 
 120    1:50   0.00   33.3    88   15.8    56    19.4   755.9    0.00 
 120    2:00   0.00   33.4    86   16.9    60    21.7   755.9    0.00 
 120    2:10   0.00   34.2    82   13.7    60    22.6   756.2    0.00 
 120    2:20   0.00   34.0    82   14.8    62    22.4   756.2    0.00 
 120    2:30   0.00   34.1    81   17.9    65    24.5   756.2    0.00 
 120    2:40   0.00   34.8    75   20.7    67    26.2   756.1    0.00 
 120    2:50   0.00   34.8    75   16.0    65    23.7   756.3    0.00 
 120    3:00   0.00   34.4    77   15.3    61    22.5   756.3    0.00 
 120    3:10   0.00   34.0    78   14.5    60    21.7   756.3    0.00 
 120    3:20   0.00   34.6    74   17.5    70    21.0   756.1    0.00 
 120    3:30   0.00   34.9    72   16.2    71    18.9   756.1    0.00 
 120    3:40   0.00   34.7    73   14.7    70    19.1   756.0    0.00 
 120    3:50   0.00   34.6    73   15.5    68    19.8   756.1    0.00 
 120    4:00   0.00   34.6    73   17.0    71    20.0   756.2    0.00 
 120    4:10   0.00   34.5    74   13.9    69    18.3   756.2    0.00 

Return to Tikaboo Peak graphs page.


Western Regional Climate Center,wrcc@dri.edu